Terminal Aerodrome Forecast
Issued by NWS Boise, ID

Home | Current Version | Previous Version | Text Only | Print | Product List | Glossary On
Versions: 1 2 3 4 5 6 7 8 9 10 11 12 13 14 15 16 17 18 19 20 21 22 23 24 25 26 27
000
FTUS45 KBOI 042320
TAFBNO
TAF
KBNO 042320Z 0500/0524 25007KT P6SM FEW100
     FM050800 27010KT P6SM -SHRA BKN070 OVC150
      TEMPO 0508/0512 VRB15G25KT -TSRA BKN070CB
     FM051300 25008KT P6SM SCT070 BKN200=

USA.gov is the U.S. government's official web portal to all federal, state and local government web resources and services.